Time;durP1;ratioP1;P1;durP2;ratioP2;P2;SDS_P1;SDS_P2;PMS_P1;PMS_P2;Temp;Humidity;BMP_temperature;BMP_pressure;BME280_temperature;BME280_humidity;BME280_pressure;Samples;Min_cycle;Max_cycle;Signal;HPM_P1;HPM_P2
2022/04/01 00:00:40;;;;;;;;;;;;;;;;;;5077945;28;20370;-89
2022/04/01 00:03:05;;;;;;;;;;;;;;;;;;5078091;28;19982;-89
2022/04/01 00:05:30;;;;;;;;;;;;;;;;;;5077786;28;19912;-89
2022/04/01 00:07:55;;;;;;;;;;;;;;;;;;5077770;28;19912;-89
2022/04/01 00:10:20;;;;;;;;;;;;;;;;;;5077568;28;19915;-90
2022/04/01 00:12:46;;;;;;;;;;;;;;;;;;5095801;28;19914;-89
2022/04/01 00:15:12;;;;;;;;;;;;;;;;;;5077658;28;19954;-89
2022/04/01 00:17:37;;;;;;;;;;;;;;;;;;5077493;28;19919;-90
2022/04/01 00:20:02;;;;;;;;;;;;;;;;;;5095520;28;19908;-89
2022/04/01 00:22:28;;;;;;;;;;;;;;;;;;5077654;28;19908;-89
2022/04/01 00:24:53;;;;;;;;;;;;;;;;;;5095869;28;19999;-90
2022/04/01 00:27:18;;;;;;;;;;;;;;;;;;5077479;28;19919;-89
2022/04/01 00:29:43;;;;;;;;;;;;;;;;;;5077448;28;19912;-89
2022/04/01 00:32:08;;;;;;;;;;;;;;;;;;5077359;28;19909;-90
2022/04/01 00:34:34;;;;;;;;;;;;;;;;;;5077363;28;19908;-90
2022/04/01 00:36:59;;;;;;;;;;;;;;;;;;5077049;28;19933;-90
2022/04/01 00:39:24;;;;;;;;;;;;;;;;;;5077235;28;19920;-89
2022/04/01 00:41:50;;;;;;;;;;;;;;;;;;5076824;28;19908;-90
2022/04/01 00:44:15;;;;;;;;;;;;;;;;;;5076882;28;19919;-90
2022/04/01 00:46:40;;;;;;;;;;;;;;;;;;5076568;28;20291;-90
2022/04/01 00:49:05;;;;;;;;;;;;;;;;;;5094203;28;20027;-90
2022/04/01 00:51:31;;;;;;;;;;;;;;;;;;5076481;28;20006;-90
2022/04/01 00:53:56;;;;;;;;;;;;;;;;;;5076753;28;20352;-89
2022/04/01 00:56:23;;;;;;;;;;;;;;;;;;5072683;28;20060;-90
2022/04/01 00:58:48;;;;;;;;;;;;;;;;;;5073706;28;19909;-90
2022/04/01 01:01:13;;;;;;;;;;;;;;;;;;5074200;28;19923;-89
2022/04/01 01:03:39;;;;;;;;;;;;;;;;;;5056308;28;19912;-90
2022/04/01 01:06:04;;;;;;;;;;;;;;;;;;5074211;28;19920;-91
2022/04/01 01:08:29;;;;;;;;;;;;;;;;;;5056709;28;19954;-89
2022/04/01 01:10:55;;;;;;;;;;;;;;;;;;5056572;28;20476;-90
2022/04/01 01:13:20;;;;;;;;;;;;;;;;;;5056455;28;19962;-90
2022/04/01 01:15:46;;;;;;;;;;;;;;;;;;5074356;28;19912;-90
2022/04/01 01:18:11;;;;;;;;;;;;;;;;;;5056445;28;19967;-90
2022/04/01 01:20:37;;;;;;;;;;;;;;;;;;5056158;28;19908;-90
2022/04/01 01:23:02;;;;;;;;;;;;;;;;;;5056482;28;19961;-89
2022/04/01 01:25:27;;;;;;;;;;;;;;;;;;5074374;28;19908;-89
2022/04/01 01:27:52;;;;;;;;;;;;;;;;;;5074366;28;19909;-90
2022/04/01 01:30:18;;;;;;;;;;;;;;;;;;5056393;28;19909;-89
2022/04/01 01:32:43;;;;;;;;;;;;;;;;;;5056357;28;19908;-89
2022/04/01 01:35:08;;;;;;;;;;;;;;;;;;5056445;28;19909;-89
2022/04/01 01:37:33;;;;;;;;;;;;;;;;;;5055865;28;19919;-90
2022/04/01 01:39:59;;;;;;;;;;;;;;;;;;5074105;28;19919;-88
2022/04/01 01:42:24;;;;;;;;;;;;;;;;;;5056321;28;19919;-89
2022/04/01 01:44:49;;;;;;;;;;;;;;;;;;5056248;28;19908;-89
2022/04/01 01:47:14;;;;;;;;;;;;;;;;;;5073911;28;19917;-90
2022/04/01 01:54:42;;;;;;;;;;;;;;;;;;5056005;28;19909;-89
2022/04/01 01:55:11;;;;;;;;;;;;;;;;;;5074183;28;19973;-89
2022/04/01 01:57:36;;;;;;;;;;;;;;;;;;5056146;28;20313;-90
2022/04/01 02:00:10;;;;;;;;;;;;;;;;;;5073185;28;20000;-90
2022/04/01 02:02:35;;;;;;;;;;;;;;;;;;5055482;28;19912;-89
2022/04/01 02:05:00;;;;;;;;;;;;;;;;;;5055507;28;19920;-90
2022/04/01 02:07:26;;;;;;;;;;;;;;;;;;5056643;28;19923;-90
2022/04/01 02:09:51;;;;;;;;;;;;;;;;;;5077100;28;19917;-91
2022/04/01 02:12:16;;;;;;;;;;;;;;;;;;5077381;28;19916;-90
2022/04/01 02:14:41;;;;;;;;;;;;;;;;;;5059925;28;19915;-90
2022/04/01 02:17:06;;;;;;;;;;;;;;;;;;5059717;28;19916;-90
2022/04/01 02:19:31;;;;;;;;;;;;;;;;;;5077533;28;19931;-90
2022/04/01 02:21:57;;;;;;;;;;;;;;;;;;5059806;28;19912;-90
2022/04/01 02:24:22;;;;;;;;;;;;;;;;;;5077699;28;20383;-90
2022/04/01 02:26:47;;;;;;;;;;;;;;;;;;5059153;28;20299;-90
2022/04/01 02:29:12;;;;;;;;;;;;;;;;;;5076873;28;20337;-90
2022/04/01 02:31:37;;;;;;;;;;;;;;;;;;5059437;28;19908;-89
2022/04/01 02:34:03;;;;;;;;;;;;;;;;;;5059606;28;19913;-89
2022/04/01 02:36:28;;;;;;;;;;;;;;;;;;5059339;28;19912;-90
2022/04/01 02:38:53;;;;;;;;;;;;;;;;;;5058844;28;19915;-89
2022/04/01 02:41:18;;;;;;;;;;;;;;;;;;5059281;28;19915;-90
2022/04/01 02:43:43;;;;;;;;;;;;;;;;;;5059407;28;19987;-90
2022/04/01 02:46:10;;;;;;;;;;;;;;;;;;5076811;28;19913;-90
2022/04/01 02:48:35;;;;;;;;;;;;;;;;;;5059167;28;19916;-90
2022/04/01 02:51:00;;;;;;;;;;;;;;;;;;5077422;28;19927;-91
2022/04/01 02:53:26;;;;;;;;;;;;;;;;;;5059294;28;20390;-90
2022/04/01 02:55:51;;;;;;;;;;;;;;;;;;5076864;28;19908;-90
2022/04/01 02:58:16;;;;;;;;;;;;;;;;;;5059249;28;19915;-90
2022/04/01 03:00:41;;;;;;;;;;;;;;;;;;5077059;28;19908;-90
2022/04/01 03:03:06;;;;;;;;;;;;;;;;;;5076202;28;19913;-90
2022/04/01 03:05:32;;;;;;;;;;;;;;;;;;5058329;28;19909;-91
2022/04/01 03:07:57;;;;;;;;;;;;;;;;;;5058408;28;19947;-90
2022/04/01 03:10:23;;;;;;;;;;;;;;;;;;5076195;28;19948;-90
2022/04/01 03:12:48;;;;;;;;;;;;;;;;;;5058668;28;19908;-90
2022/04/01 03:15:14;;;;;;;;;;;;;;;;;;5076678;28;19914;-90
2022/04/01 03:17:39;;;;;;;;;;;;;;;;;;5058958;28;19915;-90
2022/04/01 03:20:13;;;;;;;;;;;;;;;;;;5075309;28;19934;-91
2022/04/01 03:22:38;;;;;;;;;;;;;;;;;;5058259;28;19908;-91
2022/04/01 03:25:05;;;;;;;;;;;;;;;;;;5058116;28;20253;-92
2022/04/01 03:27:31;;;;;;;;;;;;;;;;;;5057559;28;19916;-90
2022/04/01 03:29:56;;;;;;;;;;;;;;;;;;5057351;28;20353;-90
2022/04/01 03:32:21;;;;;;;;;;;;;;;;;;5057782;28;19908;-90
2022/04/01 03:34:47;;;;;;;;;;;;;;;;;;5075951;28;19908;-90
2022/04/01 03:37:12;;;;;;;;;;;;;;;;;;5057940;28;19913;-90
2022/04/01 03:39:37;;;;;;;;;;;;;;;;;;5057369;28;19916;-89
2022/04/01 03:42:06;;;;;;;;;;;;;;;;;;5057567;28;19916;-90
2022/04/01 03:44:31;;;;;;;;;;;;;;;;;;5057321;28;19909;-90
2022/04/01 03:46:56;;;;;;;;;;;;;;;;;;5057014;28;19916;-90
2022/04/01 03:49:24;;;;;;;;;;;;;;;;;;5074793;28;19962;-90
2022/04/01 03:51:49;;;;;;;;;;;;;;;;;;5057210;28;19909;-90
2022/04/01 03:54:15;;;;;;;;;;;;;;;;;;5056914;28;19912;-89
2022/04/01 03:56:40;;;;;;;;;;;;;;;;;;5057708;28;19912;-90
2022/04/01 03:59:05;;;;;;;;;;;;;;;;;;5057382;28;20371;-90
2022/04/01 04:01:30;;;;;;;;;;;;;;;;;;5057106;28;19915;-90
2022/04/01 04:04:00;;;;;;;;;;;;;;;;;;5056877;28;20280;-90
2022/04/01 04:06:25;;;;;;;;;;;;;;;;;;5057339;28;19913;-90
2022/04/01 04:08:53;;;;;;;;;;;;;;;;;;5075064;28;19909;-89
2022/04/01 04:11:18;;;;;;;;;;;;;;;;;;5057725;28;19908;-89
2022/04/01 04:13:45;;;;;;;;;;;;;;;;;;5057447;28;19908;-90
2022/04/01 04:16:10;;;;;;;;;;;;;;;;;;5056966;28;19995;-89
2022/04/01 04:18:35;;;;;;;;;;;;;;;;;;5056920;28;19962;-90
2022/04/01 04:21:00;;;;;;;;;;;;;;;;;;5056686;28;19909;-90
2022/04/01 04:23:26;;;;;;;;;;;;;;;;;;5056780;28;19959;-90
2022/04/01 04:25:51;;;;;;;;;;;;;;;;;;5056626;28;19921;-90
2022/04/01 04:28:16;;;;;;;;;;;;;;;;;;5056694;28;19916;-90
2022/04/01 04:30:41;;;;;;;;;;;;;;;;;;5074593;28;20379;-89
2022/04/01 04:33:06;;;;;;;;;;;;;;;;;;5074475;28;20275;-89
2022/04/01 04:35:32;;;;;;;;;;;;;;;;;;5056725;28;19908;-90
2022/04/01 04:37:57;;;;;;;;;;;;;;;;;;5074267;28;19913;-90
2022/04/01 04:40:22;;;;;;;;;;;;;;;;;;5056523;28;19920;-90
2022/04/01 04:42:51;;;;;;;;;;;;;;;;;;5056760;28;20256;-90
2022/04/01 04:45:16;;;;;;;;;;;;;;;;;;5074517;28;19909;-90
2022/04/01 04:47:41;;;;;;;;;;;;;;;;;;5074756;28;19924;-89
2022/04/01 04:50:06;;;;;;;;;;;;;;;;;;5074211;28;19919;-90
2022/04/01 04:52:32;;;;;;;;;;;;;;;;;;5056113;28;19912;-90
2022/04/01 04:54:57;;;;;;;;;;;;;;;;;;5056365;28;19912;-90
2022/04/01 04:57:22;;;;;;;;;;;;;;;;;;5056114;28;19908;-89
2022/04/01 04:59:48;;;;;;;;;;;;;;;;;;5056017;28;19908;-90
2022/04/01 05:02:13;;;;;;;;;;;;;;;;;;5056215;28;19908;-89
2022/04/01 05:04:39;;;;;;;;;;;;;;;;;;5073892;28;19908;-90
2022/04/01 05:07:05;;;;;;;;;;;;;;;;;;5055941;28;19916;-90
2022/04/01 05:09:30;;;;;;;;;;;;;;;;;;5073030;28;20379;-91
2022/04/01 05:11:56;;;;;;;;;;;;;;;;;;5055587;28;20353;-90
2022/04/01 05:14:22;;;;;;;;;;;;;;;;;;5073424;28;19912;-90
2022/04/01 05:16:47;;;;;;;;;;;;;;;;;;5073212;28;19934;-90
2022/04/01 05:19:12;;;;;;;;;;;;;;;;;;5055201;28;19923;-90
2022/04/01 05:21:37;;;;;;;;;;;;;;;;;;5072911;28;19966;-89
2022/04/01 05:24:03;;;;;;;;;;;;;;;;;;5072810;28;19912;-91
2022/04/01 05:26:38;;;;;;;;;;;;;;;;;;5055554;28;20356;-90
2022/04/01 05:29:03;;;;;;;;;;;;;;;;;;5073242;28;19915;-90
2022/04/01 05:31:30;;;;;;;;;;;;;;;;;;5072859;28;19908;-89
2022/04/01 05:33:55;;;;;;;;;;;;;;;;;;5054908;28;19913;-89
2022/04/01 05:36:22;;;;;;;;;;;;;;;;;;5055074;28;20334;-90
2022/04/01 05:38:48;;;;;;;;;;;;;;;;;;5072343;28;19915;-91
2022/04/01 05:41:13;;;;;;;;;;;;;;;;;;5055208;28;19931;-90
2022/04/01 05:43:38;;;;;;;;;;;;;;;;;;5072706;28;19909;-90
2022/04/01 05:46:03;;;;;;;;;;;;;;;;;;5054948;28;19965;-90
2022/04/01 05:48:28;;;;;;;;;;;;;;;;;;5054881;28;20277;-89
2022/04/01 05:50:54;;;;;;;;;;;;;;;;;;5055122;28;20331;-89
2022/04/01 05:53:20;;;;;;;;;;;;;;;;;;5055380;28;19935;-90
2022/04/01 05:55:45;;;;;;;;;;;;;;;;;;5055206;28;19958;-89
2022/04/01 05:58:10;;;;;;;;;;;;;;;;;;5055305;28;19909;-90
2022/04/01 06:00:35;;;;;;;;;;;;;;;;;;5073074;28;19958;-89
2022/04/01 06:03:01;;;;;;;;;;;;;;;;;;5055022;28;19931;-89
2022/04/01 06:05:26;;;;;;;;;;;;;;;;;;5055484;28;19915;-90
2022/04/01 06:07:51;;;;;;;;;;;;;;;;;;5055645;28;19919;-89
2022/04/01 06:10:16;;;;;;;;;;;;;;;;;;5055900;28;19957;-89
2022/04/01 06:12:42;;;;;;;;;;;;;;;;;;5073242;28;20006;-89
2022/04/01 06:15:07;;;;;;;;;;;;;;;;;;5055229;28;20296;-90
2022/04/01 06:17:32;;;;;;;;;;;;;;;;;;5056246;28;19917;-91
2022/04/01 06:19:58;;;;;;;;;;;;;;;;;;5055963;28;19915;-91
2022/04/01 06:22:23;;;;;;;;;;;;;;;;;;5055875;28;19916;-91
2022/04/01 06:24:48;;;;;;;;;;;;;;;;;;5055428;28;19909;-91
2022/04/01 06:27:14;;;;;;;;;;;;;;;;;;5055164;28;19966;-90
2022/04/01 06:29:39;;;;;;;;;;;;;;;;;;5055551;28;19909;-91
2022/04/01 06:32:05;;;;;;;;;;;;;;;;;;5055811;28;20253;-90
2022/04/01 06:34:30;;;;;;;;;;;;;;;;;;5055548;28;20386;-90
2022/04/01 06:36:55;;;;;;;;;;;;;;;;;;5055550;28;19909;-90
2022/04/01 06:39:20;;;;;;;;;;;;;;;;;;5073169;28;19909;-90
2022/04/01 06:41:46;;;;;;;;;;;;;;;;;;5073028;28;19909;-91
2022/04/01 06:44:11;;;;;;;;;;;;;;;;;;5055815;28;19939;-91
2022/04/01 06:46:37;;;;;;;;;;;;;;;;;;5054813;28;19916;-91
2022/04/01 06:49:07;;;;;;;;;;;;;;;;;;5055264;28;20352;-91
2022/04/01 06:51:33;;;;;;;;;;;;;;;;;;5073424;28;19913;-92
2022/04/01 06:53:58;;;;;;;;;;;;;;;;;;5056793;28;20063;-91
2022/04/01 06:56:23;;;;;;;;;;;;;;;;;;5086984;28;20327;-92
2022/04/01 06:58:48;;;;;;;;;;;;;;;;;;5093496;28;20360;-91
2022/04/01 07:01:14;;;;;;;;;;;;;;;;;;5098139;28;19908;-91
2022/04/01 07:03:40;;;;;;;;;;;;;;;;;;5080591;28;19908;-91
2022/04/01 07:06:06;;;;;;;;;;;;;;;;;;5094863;28;19920;-92
2022/04/01 07:08:31;;;;;;;;;;;;;;;;;;5097748;28;19916;-91
2022/04/01 07:10:56;;;;;;;;;;;;;;;;;;5097525;28;19915;-92
2022/04/01 07:13:21;;;;;;;;;;;;;;;;;;5093488;28;19912;-92
2022/04/01 07:15:50;;;;;;;;;;;;;;;;;;5088239;28;19911;-92
2022/04/01 07:18:15;;;;;;;;;;;;;;;;;;5111127;28;19923;-90
2022/04/01 07:20:40;;;;;;;;;;;;;;;;;;5097435;28;20359;-92
2022/04/01 07:23:06;;;;;;;;;;;;;;;;;;5079366;28;19931;-91
2022/04/01 07:25:31;;;;;;;;;;;;;;;;;;5078953;28;19955;-91
2022/04/01 07:27:56;;;;;;;;;;;;;;;;;;5097433;28;19994;-91
2022/04/01 07:30:21;;;;;;;;;;;;;;;;;;5066526;28;20003;-92
2022/04/01 07:32:47;;;;;;;;;;;;;;;;;;5092667;28;19908;-92
2022/04/01 07:35:13;;;;;;;;;;;;;;;;;;5099179;28;19970;-92
2022/04/01 07:37:38;;;;;;;;;;;;;;;;;;5079371;28;19998;-91
2022/04/01 07:40:05;;;;;;;;;;;;;;;;;;5096512;28;20851;-91
2022/04/01 07:42:30;;;;;;;;;;;;;;;;;;5080934;28;19912;-91
2022/04/01 07:44:55;;;;;;;;;;;;;;;;;;5078983;28;20034;-91
2022/04/01 07:47:21;;;;;;;;;;;;;;;;;;5098610;28;19916;-91
2022/04/01 07:49:46;;;;;;;;;;;;;;;;;;5084008;28;20272;-91
2022/04/01 07:52:11;;;;;;;;;;;;;;;;;;5078890;28;19908;-84
2022/04/01 07:54:36;;;;;;;;;;;;;;;;;;5096575;28;20408;-91
2022/04/01 07:57:01;;;;;;;;;;;;;;;;;;5089849;28;19912;-92
2022/04/01 07:59:26;;;;;;;;;;;;;;;;;;5078635;28;19908;-91
2022/04/01 08:01:51;;;;;;;;;;;;;;;;;;5096759;28;20360;-91
2022/04/01 08:04:17;;;;;;;;;;;;;;;;;;5104628;28;20359;-92
2022/04/01 08:06:42;;;;;;;;;;;;;;;;;;5079246;28;19916;-91
2022/04/01 08:09:07;;;;;;;;;;;;;;;;;;5078951;28;20000;-89
2022/04/01 08:11:33;;;;;;;;;;;;;;;;;;5079376;28;19908;-92
2022/04/01 08:13:58;;;;;;;;;;;;;;;;;;5078233;28;19912;-92
2022/04/01 08:16:23;;;;;;;;;;;;;;;;;;5078402;28;19939;-92
2022/04/01 08:18:48;;;;;;;;;;;;;;;;;;5096456;28;19944;-92
2022/04/01 08:21:14;;;;;;;;;;;;;;;;;;5078380;28;19908;-93
2022/04/01 08:23:40;;;;;;;;;;;;;;;;;;5096090;28;19930;-92
2022/04/01 08:26:05;;;;;;;;;;;;;;;;;;5096226;28;20003;-93
2022/04/01 08:28:30;;;;;;;;;;;;;;;;;;5078147;28;19961;-92
2022/04/01 08:30:55;;;;;;;;;;;;;;;;;;5078123;28;19967;-92
2022/04/01 08:33:20;;;;;;;;;;;;;;;;;;5071892;28;19968;-88
2022/04/01 08:35:45;;;;;;;;;;;;;;;;;;5072625;28;20329;-91
2022/04/01 08:38:10;;;;;;;;;;;;;;;;;;5063765;28;19912;-92
2022/04/01 08:40:36;;;;;;;;;;;;;;;;;;5076699;28;20425;-92
2022/04/01 08:43:01;;;;;;;;;;;;;;;;;;5079243;28;20295;-90
2022/04/01 08:45:26;;;;;;;;;;;;;;;;;;5098728;28;19912;-90
2022/04/01 08:47:51;;;;;;;;;;;;;;;;;;5098274;28;19971;-90
2022/04/01 08:50:16;;;;;;;;;;;;;;;;;;5084914;28;19957;-91
2022/04/01 08:52:41;;;;;;;;;;;;;;;;;;5077595;28;19908;-91
2022/04/01 08:55:07;;;;;;;;;;;;;;;;;;5077473;28;19962;-90
2022/04/01 08:57:32;;;;;;;;;;;;;;;;;;5077635;28;19939;-91
2022/04/01 08:59:59;;;;;;;;;;;;;;;;;;5077972;28;19916;-91
2022/04/01 09:02:25;;;;;;;;;;;;;;;;;;5096495;28;20291;-90
2022/04/01 09:04:53;;;;;;;;;;;;;;;;;;5078151;28;19908;-92
2022/04/01 09:07:18;;;;;;;;;;;;;;;;;;5086040;28;20004;-91
2022/04/01 09:09:43;;;;;;;;;;;;;;;;;;5076875;28;19988;-90
2022/04/01 09:12:08;;;;;;;;;;;;;;;;;;5078340;28;20400;-89
2022/04/01 09:14:34;;;;;;;;;;;;;;;;;;5076805;28;19934;-90
2022/04/01 09:17:00;;;;;;;;;;;;;;;;;;5094125;28;19908;-90
2022/04/01 09:19:26;;;;;;;;;;;;;;;;;;5077846;28;20363;-90
2022/04/01 09:21:51;;;;;;;;;;;;;;;;;;5078501;28;19912;-90
2022/04/01 09:24:16;;;;;;;;;;;;;;;;;;5103244;28;19912;-91
2022/04/01 09:26:41;;;;;;;;;;;;;;;;;;5097893;28;19916;-92
2022/04/01 09:29:06;;;;;;;;;;;;;;;;;;5097926;28;20415;-93
2022/04/01 09:31:31;;;;;;;;;;;;;;;;;;5096624;28;20344;-90
2022/04/01 09:33:56;;;;;;;;;;;;;;;;;;5092030;28;19916;-92
2022/04/01 09:36:22;;;;;;;;;;;;;;;;;;5103917;28;19935;-91
2022/04/01 09:38:47;;;;;;;;;;;;;;;;;;5099571;28;20007;-92
2022/04/01 09:41:12;;;;;;;;;;;;;;;;;;5083536;28;20000;-91
2022/04/01 09:43:37;;;;;;;;;;;;;;;;;;5080322;28;19999;-91
2022/04/01 09:46:02;;;;;;;;;;;;;;;;;;5080727;28;20465;-91
2022/04/01 09:48:28;;;;;;;;;;;;;;;;;;5090831;28;19916;-92
2022/04/01 09:50:55;;;;;;;;;;;;;;;;;;5114987;28;20283;-91
2022/04/01 09:53:21;;;;;;;;;;;;;;;;;;5109081;28;19912;-90
2022/04/01 09:55:46;;;;;;;;;;;;;;;;;;5105787;28;20495;-91
2022/04/01 09:58:11;;;;;;;;;;;;;;;;;;5076870;28;20410;-93
2022/04/01 10:00:36;;;;;;;;;;;;;;;;;;5076794;28;19930;-92
2022/04/01 10:03:01;;;;;;;;;;;;;;;;;;5056917;28;19912;-93
2022/04/01 10:05:27;;;;;;;;;;;;;;;;;;5093844;28;19999;-91
2022/04/01 10:07:52;;;;;;;;;;;;;;;;;;5091209;28;19916;-91
2022/04/01 10:10:17;;;;;;;;;;;;;;;;;;5064494;28;19912;-92
2022/04/01 10:12:43;;;;;;;;;;;;;;;;;;5084630;28;19915;-91
2022/04/01 10:15:08;;;;;;;;;;;;;;;;;;5085286;28;19935;-91
2022/04/01 10:17:33;;;;;;;;;;;;;;;;;;5096780;28;19912;-92
2022/04/01 10:19:59;;;;;;;;;;;;;;;;;;5094689;28;20350;-93
2022/04/01 10:22:24;;;;;;;;;;;;;;;;;;5074903;28;19917;-90
2022/04/01 10:24:49;;;;;;;;;;;;;;;;;;5072858;28;19913;-91
2022/04/01 10:27:14;;;;;;;;;;;;;;;;;;5088335;28;19969;-93
2022/04/01 10:29:40;;;;;;;;;;;;;;;;;;5070226;28;20271;-90
2022/04/01 10:32:05;;;;;;;;;;;;;;;;;;5080083;28;19983;-92
2022/04/01 10:34:30;;;;;;;;;;;;;;;;;;5089251;28;19912;-90
2022/04/01 10:36:55;;;;;;;;;;;;;;;;;;5116744;28;19918;-91
2022/04/01 10:39:20;;;;;;;;;;;;;;;;;;5097466;28;19919;-90
2022/04/01 10:41:45;;;;;;;;;;;;;;;;;;5078933;28;20356;-91
2022/04/01 10:44:10;;;;;;;;;;;;;;;;;;5065739;28;19926;-92
2022/04/01 10:46:36;;;;;;;;;;;;;;;;;;5066156;28;19920;-95
2022/04/01 10:51:46;;;;;;;;;;;;;;;;;;5097756;28;19974;-91
2022/04/01 10:54:14;;;;;;;;;;;;;;;;;;5105281;28;19916;-87
2022/04/01 10:56:39;;;;;;;;;;;;;;;;;;5087160;28;19997;-90
2022/04/01 10:59:04;;;;;;;;;;;;;;;;;;5100139;28;19916;-91
2022/04/01 11:01:29;;;;;;;;;;;;;;;;;;5081089;28;19964;-92
2022/04/01 11:03:54;;;;;;;;;;;;;;;;;;5078265;28;19964;-91
2022/04/01 11:06:19;;;;;;;;;;;;;;;;;;5084060;28;19916;-92
2022/04/01 11:08:45;;;;;;;;;;;;;;;;;;5086958;28;19912;-90
2022/04/01 11:11:10;;;;;;;;;;;;;;;;;;5099332;28;19912;-92
2022/04/01 11:13:35;;;;;;;;;;;;;;;;;;5060021;28;19920;-91
2022/04/01 11:16:00;;;;;;;;;;;;;;;;;;5063899;28;19912;-92
2022/04/01 11:18:25;;;;;;;;;;;;;;;;;;5095379;28;19920;-91
2022/04/01 11:20:50;;;;;;;;;;;;;;;;;;5110702;28;19911;-92
2022/04/01 11:23:15;;;;;;;;;;;;;;;;;;5100137;28;20363;-93
2022/04/01 11:25:44;;;;;;;;;;;;;;;;;;5100340;28;19957;-91
2022/04/01 11:28:10;;;;;;;;;;;;;;;;;;5099252;28;19912;-91
2022/04/01 11:30:35;;;;;;;;;;;;;;;;;;5090625;28;19915;-86
2022/04/01 11:33:00;;;;;;;;;;;;;;;;;;5086106;28;19907;-91
2022/04/01 11:35:26;;;;;;;;;;;;;;;;;;5091171;28;19917;-92
2022/04/01 11:37:51;;;;;;;;;;;;;;;;;;5100301;28;19912;-92
2022/04/01 11:40:16;;;;;;;;;;;;;;;;;;5082299;28;20279;-91
2022/04/01 11:42:41;;;;;;;;;;;;;;;;;;5080045;28;19913;-92
2022/04/01 11:45:06;;;;;;;;;;;;;;;;;;5084082;28;19956;-91
2022/04/01 11:47:37;;;;;;;;;;;;;;;;;;5104993;28;20052;-92
2022/04/01 11:50:02;;;;;;;;;;;;;;;;;;5101352;28;19911;-91
2022/04/01 11:52:28;;;;;;;;;;;;;;;;;;5110309;27;19931;-93
2022/04/01 11:54:55;;;;;;;;;;;;;;;;;;5079181;28;19986;-92
2022/04/01 11:57:20;;;;;;;;;;;;;;;;;;5077285;28;19909;-91
2022/04/01 11:59:46;;;;;;;;;;;;;;;;;;5099885;28;19919;-93
2022/04/01 12:02:11;;;;;;;;;;;;;;;;;;5096609;28;19930;-92
2022/04/01 12:04:38;;;;;;;;;;;;;;;;;;5079954;28;20008;-92
2022/04/01 12:09:47;;;;;;;;;;;;;;;;;;5087959;28;19924;-89
2022/04/01 12:12:12;;;;;;;;;;;;;;;;;;5095299;28;19908;-90
2022/04/01 12:14:37;;;;;;;;;;;;;;;;;;5098330;28;19912;-92
2022/04/01 12:17:02;;;;;;;;;;;;;;;;;;5097231;28;19915;-90
2022/04/01 12:19:30;;;;;;;;;;;;;;;;;;5088711;28;19908;-89
2022/04/01 12:21:55;;;;;;;;;;;;;;;;;;5097733;28;19937;-89
2022/04/01 12:24:20;;;;;;;;;;;;;;;;;;5101553;28;19908;-90
2022/04/01 12:26:45;;;;;;;;;;;;;;;;;;5095356;28;20317;-89
2022/04/01 12:29:10;;;;;;;;;;;;;;;;;;5076672;28;20363;-90
2022/04/01 12:31:35;;;;;;;;;;;;;;;;;;5077324;28;19912;-90
2022/04/01 12:34:00;;;;;;;;;;;;;;;;;;5095232;28;19909;-89
2022/04/01 12:36:26;;;;;;;;;;;;;;;;;;5077915;28;19916;-90
2022/04/01 12:38:51;;;;;;;;;;;;;;;;;;5077101;28;19908;-90
2022/04/01 12:41:16;;;;;;;;;;;;;;;;;;5095247;28;19908;-89
2022/04/01 12:43:41;;;;;;;;;;;;;;;;;;5077034;28;19908;-89
2022/04/01 12:46:06;;;;;;;;;;;;;;;;;;5076863;28;19958;-88
2022/04/01 12:48:31;;;;;;;;;;;;;;;;;;5076899;28;19912;-89
2022/04/01 12:50:57;;;;;;;;;;;;;;;;;;5068540;28;20314;-90
2022/04/01 12:53:22;;;;;;;;;;;;;;;;;;5086162;28;19909;-90
2022/04/01 12:55:47;;;;;;;;;;;;;;;;;;5086709;28;19958;-89
2022/04/01 12:58:14;;;;;;;;;;;;;;;;;;5089447;28;19912;-89
2022/04/01 13:00:39;;;;;;;;;;;;;;;;;;5071993;28;20256;-89
2022/04/01 13:03:04;;;;;;;;;;;;;;;;;;5064318;28;19947;-89
2022/04/01 13:05:29;;;;;;;;;;;;;;;;;;5068203;28;19951;-90
2022/04/01 13:07:54;;;;;;;;;;;;;;;;;;5103200;28;20341;-90
2022/04/01 13:10:21;;;;;;;;;;;;;;;;;;5074578;28;19909;-90
2022/04/01 13:12:46;;;;;;;;;;;;;;;;;;5074625;28;19991;-89
2022/04/01 13:15:11;;;;;;;;;;;;;;;;;;5075747;28;19920;-89
2022/04/01 13:17:36;;;;;;;;;;;;;;;;;;5094061;28;19908;-89
2022/04/01 13:20:02;;;;;;;;;;;;;;;;;;5076352;28;19909;-89
2022/04/01 13:22:27;;;;;;;;;;;;;;;;;;5074504;28;20421;-89
2022/04/01 13:24:52;;;;;;;;;;;;;;;;;;5086322;28;20288;-90
2022/04/01 13:27:17;;;;;;;;;;;;;;;;;;5094636;28;19920;-89
2022/04/01 13:29:42;;;;;;;;;;;;;;;;;;5068336;28;19912;-89
2022/04/01 13:32:07;;;;;;;;;;;;;;;;;;5071073;28;19917;-89
2022/04/01 13:34:33;;;;;;;;;;;;;;;;;;5063398;28;19944;-89
2022/04/01 13:36:58;;;;;;;;;;;;;;;;;;5097946;28;19912;-87
2022/04/01 13:39:28;;;;;;;;;;;;;;;;;;5095648;28;19912;-88
2022/04/01 13:41:53;;;;;;;;;;;;;;;;;;5094950;28;20363;-89
2022/04/01 13:44:18;;;;;;;;;;;;;;;;;;5094115;28;20403;-89
2022/04/01 13:46:43;;;;;;;;;;;;;;;;;;5110608;28;20006;-89
2022/04/01 13:49:08;;;;;;;;;;;;;;;;;;5073850;28;20597;-89
2022/04/01 13:51:34;;;;;;;;;;;;;;;;;;5075581;28;19933;-90
2022/04/01 13:53:59;;;;;;;;;;;;;;;;;;5074710;28;19927;-89
2022/04/01 13:56:25;;;;;;;;;;;;;;;;;;5080009;28;19919;-89
2022/04/01 13:58:50;;;;;;;;;;;;;;;;;;5096236;28;20358;-89
2022/04/01 14:01:15;;;;;;;;;;;;;;;;;;5094782;28;19928;-90
2022/04/01 14:03:40;;;;;;;;;;;;;;;;;;5077878;28;20367;-89
2022/04/01 14:06:05;;;;;;;;;;;;;;;;;;5097792;28;19938;-89
2022/04/01 14:08:30;;;;;;;;;;;;;;;;;;5079293;28;19915;-90
2022/04/01 14:10:55;;;;;;;;;;;;;;;;;;5080717;28;19920;-89
2022/04/01 14:13:20;;;;;;;;;;;;;;;;;;5095699;28;19908;-88
2022/04/01 14:15:46;;;;;;;;;;;;;;;;;;5073318;28;19909;-89
2022/04/01 14:18:11;;;;;;;;;;;;;;;;;;5082003;28;20303;-89
2022/04/01 14:20:36;;;;;;;;;;;;;;;;;;5076897;28;19908;-89
2022/04/01 14:23:01;;;;;;;;;;;;;;;;;;5116538;28;19981;-88
2022/04/01 14:25:26;;;;;;;;;;;;;;;;;;5093777;28;20279;-89
2022/04/01 14:27:51;;;;;;;;;;;;;;;;;;5096628;28;20002;-89
2022/04/01 14:30:18;;;;;;;;;;;;;;;;;;5100586;28;20002;-90
2022/04/01 14:32:43;;;;;;;;;;;;;;;;;;5079628;28;19919;-90
2022/04/01 14:35:08;;;;;;;;;;;;;;;;;;5083460;28;19911;-89
2022/04/01 14:37:33;;;;;;;;;;;;;;;;;;5094482;28;19915;-89
2022/04/01 14:39:58;;;;;;;;;;;;;;;;;;5093891;28;19920;-89
2022/04/01 14:42:23;;;;;;;;;;;;;;;;;;5078467;28;19919;-88
2022/04/01 14:44:48;;;;;;;;;;;;;;;;;;5077518;28;19912;-90
2022/04/01 14:47:13;;;;;;;;;;;;;;;;;;5079001;28;19916;-91
2022/04/01 14:49:39;;;;;;;;;;;;;;;;;;5095220;28;20255;-90
2022/04/01 14:52:04;;;;;;;;;;;;;;;;;;5085748;28;20406;-90
2022/04/01 14:54:29;;;;;;;;;;;;;;;;;;5088673;28;20283;-91
2022/04/01 14:56:54;;;;;;;;;;;;;;;;;;5079752;28;20315;-88
2022/04/01 14:59:20;;;;;;;;;;;;;;;;;;5085635;28;19920;-85
2022/04/01 15:01:45;;;;;;;;;;;;;;;;;;5076040;28;19923;-89
2022/04/01 15:04:10;;;;;;;;;;;;;;;;;;5069122;28;20314;-87
2022/04/01 15:06:35;;;;;;;;;;;;;;;;;;5070480;28;19923;-89
2022/04/01 15:09:01;;;;;;;;;;;;;;;;;;5088591;28;19916;-88
2022/04/01 15:11:26;;;;;;;;;;;;;;;;;;5075920;28;20573;-88
2022/04/01 15:13:51;;;;;;;;;;;;;;;;;;5079595;28;19957;-89
2022/04/01 15:16:16;;;;;;;;;;;;;;;;;;5077234;28;19912;-88
2022/04/01 15:18:41;;;;;;;;;;;;;;;;;;5096662;28;19916;-88
2022/04/01 15:21:06;;;;;;;;;;;;;;;;;;5089162;28;20283;-89
2022/04/01 15:23:32;;;;;;;;;;;;;;;;;;5081876;28;19912;-89
2022/04/01 15:25:57;;;;;;;;;;;;;;;;;;5094291;28;19919;-88
2022/04/01 15:28:22;;;;;;;;;;;;;;;;;;5098555;28;19915;-89
2022/04/01 15:30:47;;;;;;;;;;;;;;;;;;5116208;28;19930;-89
2022/04/01 15:33:12;;;;;;;;;;;;;;;;;;5095506;28;20301;-88
2022/04/01 15:35:38;;;;;;;;;;;;;;;;;;5080952;28;19912;-88
2022/04/01 15:38:03;;;;;;;;;;;;;;;;;;5078413;28;19908;-89
2022/04/01 15:40:28;;;;;;;;;;;;;;;;;;5076557;28;19908;-88
2022/04/01 15:42:53;;;;;;;;;;;;;;;;;;5076490;28;19908;-89
2022/04/01 15:45:18;;;;;;;;;;;;;;;;;;5094736;28;20428;-88
2022/04/01 15:47:44;;;;;;;;;;;;;;;;;;5076583;28;19915;-89
2022/04/01 15:50:10;;;;;;;;;;;;;;;;;;5083485;28;19912;-89
2022/04/01 15:52:36;;;;;;;;;;;;;;;;;;5086221;28;20450;-88
2022/04/01 15:55:02;;;;;;;;;;;;;;;;;;5098411;28;20015;-87
2022/04/01 15:57:27;;;;;;;;;;;;;;;;;;5097974;28;20371;-89
2022/04/01 15:59:52;;;;;;;;;;;;;;;;;;5073671;28;19978;-87
2022/04/01 16:02:17;;;;;;;;;;;;;;;;;;5087011;28;20478;-86
2022/04/01 16:04:42;;;;;;;;;;;;;;;;;;5070759;28;20448;-87
2022/04/01 16:07:08;;;;;;;;;;;;;;;;;;5079434;28;20050;-86
2022/04/01 16:09:33;;;;;;;;;;;;;;;;;;5076857;28;19920;-86
2022/04/01 16:11:58;;;;;;;;;;;;;;;;;;5086130;28;20351;-86
2022/04/01 16:14:23;;;;;;;;;;;;;;;;;;5083239;28;19916;-88
2022/04/01 16:16:48;;;;;;;;;;;;;;;;;;5066376;28;19912;-87
2022/04/01 16:19:13;;;;;;;;;;;;;;;;;;5099764;28;19912;-87
2022/04/01 16:21:38;;;;;;;;;;;;;;;;;;5083325;28;19916;-87
2022/04/01 16:24:04;;;;;;;;;;;;;;;;;;5082082;28;19912;-88
2022/04/01 16:26:29;;;;;;;;;;;;;;;;;;5081451;28;20302;-89
2022/04/01 16:28:54;;;;;;;;;;;;;;;;;;5075739;28;19920;-88
2022/04/01 16:31:19;;;;;;;;;;;;;;;;;;5103505;28;20348;-88
2022/04/01 16:33:44;;;;;;;;;;;;;;;;;;5063843;28;20014;-88
2022/04/01 16:36:09;;;;;;;;;;;;;;;;;;5070923;28;19919;-88
2022/04/01 16:38:35;;;;;;;;;;;;;;;;;;5080929;28;19960;-89
2022/04/01 16:41:00;;;;;;;;;;;;;;;;;;5082343;28;19931;-88